createdAt,value
2022-10-23T00:03:40.373Z,10.48
2022-10-23T00:07:41.996Z,9.43
2022-10-23T00:11:44.746Z,10.15
2022-10-23T00:15:46.423Z,9.43
2022-10-23T00:19:47.948Z,10.20
2022-10-23T00:23:49.756Z,8.52
2022-10-23T00:27:51.386Z,9.52
2022-10-23T00:31:52.912Z,9.57
2022-10-23T00:35:54.422Z,9.43
2022-10-23T00:39:56.287Z,9.32
2022-10-23T00:44:04.053Z,9.65
2022-10-23T00:48:05.771Z,9.93
2022-10-23T00:52:09.940Z,10.25
2022-10-23T00:56:12.800Z,10.85
2022-10-23T01:00:23.713Z,10.18
2022-10-23T01:04:29.756Z,9.57
2022-10-23T01:08:43.512Z,10.55
2022-10-23T01:13:02.302Z,10.32
2022-10-23T01:17:12.612Z,10.70
2022-10-23T01:21:23.825Z,9.75
2022-10-23T01:25:51.994Z,9.85
2022-10-23T01:30:07.523Z,9.52
2022-10-23T01:34:20.278Z,9.77
2022-10-23T01:38:25.837Z,10.30
2022-10-23T01:42:35.531Z,11.15
2022-10-23T01:46:37.545Z,10.02
2022-10-23T01:50:43.818Z,9.52
2022-10-23T01:54:47.327Z,10.32
2022-10-23T01:58:52.553Z,10.63
2022-10-23T02:02:58.643Z,11.10
2022-10-23T02:07:06.218Z,9.25
2022-10-23T02:11:11.219Z,9.07
2022-10-23T02:15:37.714Z,10.05
2022-10-23T02:20:05.039Z,9.63
2022-10-23T02:24:11.582Z,9.07
2022-10-23T02:28:25.104Z,10.35
2022-10-23T02:32:31.189Z,9.50
2022-10-23T02:36:33.008Z,10.07
2022-10-23T02:40:40.568Z,9.57
2022-10-23T02:44:57.979Z,9.93
2022-10-23T02:49:13.545Z,10.13
2022-10-23T02:53:44.391Z,10.05
2022-10-23T02:58:10.453Z,10.15
2022-10-23T03:06:24.947Z,10.10
2022-10-23T03:10:26.436Z,11.82
2022-10-23T03:14:27.880Z,11.40
2022-10-23T03:18:29.380Z,9.93
2022-10-23T03:22:34.208Z,10.82
2022-10-23T03:26:35.823Z,10.40
2022-10-23T03:30:37.350Z,10.43
2022-10-23T03:34:39.068Z,11.13
2022-10-23T03:38:43.686Z,10.20
2022-10-23T03:42:45.560Z,10.80
2022-10-23T03:46:51.211Z,10.55
2022-10-23T03:50:52.893Z,10.52
2022-10-23T03:54:54.520Z,11.38
2022-10-23T03:58:56.070Z,10.80
2022-10-23T04:03:00.396Z,11.23
2022-10-23T04:07:02.932Z,11.60
2022-10-23T04:11:04.511Z,11.18
2022-10-23T04:15:16.849Z,11.85
2022-10-23T04:19:20.870Z,11.32
2022-10-23T04:23:22.502Z,11.48
2022-10-23T04:27:24.297Z,12.48
2022-10-23T04:31:26.186Z,10.60
2022-10-23T04:35:27.789Z,10.90
2022-10-23T04:39:29.756Z,11.73
2022-10-23T04:43:31.232Z,11.68
2022-10-23T04:47:32.734Z,12.82
2022-10-23T04:51:35.062Z,17.23
2022-10-23T04:55:55.492Z,15.32
2022-10-23T05:00:01.866Z,14.48
2022-10-23T05:04:10.370Z,13.65
2022-10-23T05:08:50.472Z,13.10
2022-10-23T05:13:19.872Z,12.25
2022-10-23T05:17:26.984Z,11.38
2022-10-23T05:21:31.314Z,12.25
2022-10-23T05:25:35.260Z,12.43
2022-10-23T05:29:47.581Z,12.57
2022-10-23T05:33:54.373Z,13.43
2022-10-23T05:37:58.965Z,12.27
2022-10-23T05:42:00.884Z,13.05
2022-10-23T05:46:06.232Z,12.63
2022-10-23T05:50:08.240Z,13.80
2022-10-23T05:54:44.928Z,12.40
2022-10-23T05:58:56.583Z,12.60
2022-10-23T06:03:16.462Z,13.20
2022-10-23T06:07:24.445Z,12.52
2022-10-23T06:11:26.341Z,12.02
2022-10-23T06:15:34.208Z,12.10
2022-10-23T06:19:43.779Z,11.75
2022-10-23T06:23:46.516Z,12.88
2022-10-23T06:27:53.832Z,11.35
2022-10-23T06:31:55.580Z,10.43
2022-10-23T06:35:58.508Z,12.45
2022-10-23T06:40:00.197Z,10.63
2022-10-23T06:44:20.750Z,10.80
2022-10-23T06:52:46.401Z,10.20
2022-10-23T06:56:51.382Z,9.10
2022-10-23T07:01:01.949Z,9.15
2022-10-23T07:05:04.477Z,10.07
2022-10-23T07:09:06.144Z,8.82
2022-10-23T07:13:26.101Z,9.10
2022-10-23T07:17:34.923Z,8.18
2022-10-23T07:21:37.808Z,8.70
2022-10-23T07:26:11.498Z,8.15
2022-10-23T07:30:14.405Z,8.32
2022-10-23T07:34:24.887Z,6.88
2022-10-23T07:38:44.612Z,6.35
2022-10-23T07:42:46.294Z,6.68
2022-10-23T07:46:49.802Z,7.13
2022-10-23T07:50:51.923Z,6.25
2022-10-23T07:54:53.859Z,5.85
2022-10-23T07:58:56.349Z,5.40
2022-10-23T08:02:57.905Z,5.20
2022-10-23T08:07:01.074Z,6.38
2022-10-23T08:11:06.344Z,5.55
2022-10-23T08:15:18.545Z,4.97
2022-10-23T08:19:27.934Z,5.18
2022-10-23T08:23:30.985Z,5.13
2022-10-23T08:27:33.589Z,5.15
2022-10-23T08:31:35.831Z,5.03
2022-10-23T08:35:46.286Z,5.55
2022-10-23T08:39:55.895Z,5.57
2022-10-23T08:44:28.046Z,4.80
2022-10-23T08:48:42.639Z,4.72
2022-10-23T08:53:29.850Z,4.20
2022-10-23T08:57:43.834Z,4.32
2022-10-23T09:02:11.715Z,5.13
2022-10-23T09:06:31.023Z,4.80
2022-10-23T09:10:52.744Z,4.32
2022-10-23T09:15:19.656Z,4.03
2022-10-23T09:19:27.267Z,4.32
2022-10-23T09:23:29.044Z,4.10
2022-10-23T09:27:30.832Z,4.07
2022-10-23T09:31:32.477Z,4.53
2022-10-23T09:35:33.971Z,4.40
2022-10-23T09:39:36.868Z,4.18
2022-10-23T09:43:38.502Z,3.75
2022-10-23T09:47:42.229Z,4.78
2022-10-23T09:52:04.130Z,4.20
2022-10-23T10:00:53.399Z,4.03
2022-10-23T10:05:43.833Z,3.65
2022-10-23T10:09:56.528Z,3.67
2022-10-23T10:14:19.257Z,4.00
2022-10-23T10:18:26.405Z,3.78
2022-10-23T10:22:33.877Z,3.50
2022-10-23T10:26:53.512Z,3.90
2022-10-23T10:31:10.474Z,4.38
2022-10-23T10:35:33.908Z,4.03
2022-10-23T10:39:44.292Z,4.30
2022-10-23T10:44:17.608Z,4.13
2022-10-23T10:48:52.857Z,4.30
2022-10-23T10:53:23.464Z,3.78
2022-10-23T10:57:39.158Z,3.60
2022-10-23T11:02:12.672Z,3.78
2022-10-23T11:06:19.086Z,3.67
2022-10-23T11:10:47.652Z,3.15
2022-10-23T11:14:50.313Z,3.08
2022-10-23T11:19:11.301Z,3.05
2022-10-23T11:24:12.529Z,3.50
2022-10-23T11:28:48.328Z,3.47
2022-10-23T11:33:16.842Z,3.28
2022-10-23T11:37:20.426Z,3.22
2022-10-23T11:41:33.717Z,3.60
2022-10-23T11:45:38.411Z,3.80
2022-10-23T11:49:40.023Z,3.65
2022-10-23T11:53:41.606Z,3.45
2022-10-23T11:57:46.125Z,3.65
2022-10-23T12:01:50.242Z,3.60
2022-10-23T12:06:02.893Z,3.92
2022-10-23T12:10:26.863Z,3.97
2022-10-23T12:18:48.112Z,3.88
2022-10-23T12:23:05.908Z,3.72
2022-10-23T12:31:27.652Z,3.28
2022-10-23T12:35:50.685Z,4.05
2022-10-23T12:39:56.661Z,3.90
2022-10-23T12:44:03.987Z,4.35
2022-10-23T12:48:05.870Z,3.95
2022-10-23T12:52:17.210Z,3.42
2022-10-23T13:00:24.115Z,3.42
2022-10-23T13:04:29.390Z,3.70
2022-10-23T13:08:42.983Z,3.70
2022-10-23T13:13:13.421Z,4.57
2022-10-23T13:17:14.973Z,4.07
2022-10-23T13:21:23.041Z,4.05
2022-10-23T13:25:31.173Z,4.03
2022-10-23T13:29:34.650Z,4.07
2022-10-23T13:33:43.561Z,4.18
2022-10-23T13:41:51.513Z,4.20
2022-10-23T13:45:53.733Z,3.78
2022-10-23T13:49:55.428Z,4.93
2022-10-23T13:53:57.668Z,4.90
2022-10-23T13:57:59.337Z,4.65
2022-10-23T14:02:01.001Z,4.75
2022-10-23T14:06:02.792Z,5.20
2022-10-23T14:10:05.094Z,4.97
2022-10-23T14:14:07.131Z,5.00
2022-10-23T14:18:08.676Z,5.25
2022-10-23T14:22:10.461Z,5.07
2022-10-23T14:26:15.252Z,5.10
2022-10-23T14:30:16.865Z,4.47
2022-10-23T14:34:18.677Z,4.28
2022-10-23T14:38:20.303Z,4.45
2022-10-23T14:42:22.045Z,4.93
2022-10-23T14:46:25.294Z,4.65
2022-10-23T14:50:27.628Z,4.50
2022-10-23T14:54:31.142Z,5.18
2022-10-23T14:58:32.753Z,5.32
2022-10-23T15:02:34.412Z,5.25
2022-10-23T15:06:36.843Z,5.35
2022-10-23T15:10:39.100Z,4.95
2022-10-23T15:14:40.718Z,5.50
2022-10-23T15:18:42.247Z,5.25
2022-10-23T15:22:44.143Z,5.57
2022-10-23T15:26:46.488Z,5.68
2022-10-23T15:30:48.113Z,5.68
2022-10-23T15:34:50.195Z,5.68
2022-10-23T15:38:52.010Z,5.90
2022-10-23T15:42:53.499Z,5.95
2022-10-23T15:46:56.974Z,5.55
2022-10-23T15:50:59.131Z,5.63
2022-10-23T15:55:00.692Z,6.28
2022-10-23T15:59:02.861Z,6.15
2022-10-23T16:03:04.440Z,6.15
2022-10-23T16:07:07.110Z,5.55
2022-10-23T16:11:20.991Z,6.53
2022-10-23T16:15:22.643Z,6.20
2022-10-23T16:19:24.429Z,6.15
2022-10-23T16:23:28.210Z,6.47
2022-10-23T16:27:29.746Z,6.82
2022-10-23T16:31:31.907Z,6.35
2022-10-23T16:35:33.504Z,7.03
2022-10-23T16:39:43.862Z,6.90
2022-10-23T16:44:23.827Z,7.35
2022-10-23T16:48:38.308Z,7.13
2022-10-23T16:52:39.910Z,7.35
2022-10-23T16:56:41.410Z,7.40
2022-10-23T17:00:43.093Z,8.00
2022-10-23T17:04:44.656Z,8.25
2022-10-23T17:08:46.785Z,8.00
2022-10-23T17:12:49.915Z,8.65
2022-10-23T17:16:52.232Z,8.23
2022-10-23T17:20:57.595Z,8.38
2022-10-23T17:24:59.216Z,9.82
2022-10-23T17:29:04.248Z,9.10
2022-10-23T17:33:06.041Z,9.57
2022-10-23T17:37:07.884Z,11.07
2022-10-23T17:41:11.157Z,10.88
2022-10-23T17:45:12.684Z,11.65
2022-10-23T17:49:14.308Z,11.40
2022-10-23T17:53:15.853Z,12.32
2022-10-23T17:57:20.145Z,10.80
2022-10-23T18:01:25.072Z,12.23
2022-10-23T18:05:27.092Z,11.15
2022-10-23T18:09:28.635Z,11.93
2022-10-23T18:13:32.362Z,12.35
2022-10-23T18:17:34.973Z,12.77
2022-10-23T18:21:37.759Z,12.43
2022-10-23T18:25:42.815Z,12.57
2022-10-23T18:29:44.692Z,13.45
2022-10-23T18:33:46.929Z,13.82
2022-10-23T18:37:48.725Z,12.98
2022-10-23T18:41:55.002Z,13.50
2022-10-23T18:45:56.694Z,13.10
2022-10-23T18:49:58.319Z,12.95
2022-10-23T18:54:03.159Z,14.00
2022-10-23T18:58:04.673Z,13.85
2022-10-23T19:02:06.621Z,14.02
2022-10-23T19:06:08.504Z,13.00
2022-10-23T19:10:15.618Z,13.82
2022-10-23T19:14:17.126Z,12.82
2022-10-23T19:18:18.942Z,12.90
2022-10-23T19:22:20.543Z,13.60
2022-10-23T19:26:22.228Z,12.77
2022-10-23T19:30:24.975Z,12.48
2022-10-23T19:34:26.788Z,13.48
2022-10-23T19:38:28.275Z,13.65
2022-10-23T19:42:30.000Z,11.98
2022-10-23T19:46:31.735Z,13.35
2022-10-23T19:50:33.422Z,12.65
2022-10-23T19:54:35.106Z,12.23
2022-10-23T19:58:37.520Z,10.80
2022-10-23T20:02:39.204Z,12.00
2022-10-23T20:06:41.245Z,11.23
2022-10-23T20:10:44.346Z,11.68
2022-10-23T20:14:46.056Z,13.02
2022-10-23T20:18:48.544Z,11.90
2022-10-23T20:22:54.570Z,11.88
2022-10-23T20:26:57.220Z,11.68
2022-10-23T20:30:58.734Z,10.88
2022-10-23T20:35:00.632Z,10.75
2022-10-23T20:39:06.027Z,10.75
2022-10-23T20:43:07.697Z,9.95
2022-10-23T20:47:09.205Z,10.32
2022-10-23T20:51:17.371Z,10.20
2022-10-23T20:55:19.596Z,9.32
2022-10-23T20:59:21.406Z,9.43
2022-10-23T21:03:26.135Z,8.90
2022-10-23T21:07:27.720Z,9.52
2022-10-23T21:11:29.639Z,8.68
2022-10-23T21:15:31.233Z,8.88
2022-10-23T21:19:32.909Z,8.93
2022-10-23T21:23:35.837Z,9.30
2022-10-23T21:27:37.434Z,8.25
2022-10-23T21:31:39.255Z,8.98
2022-10-23T21:35:47.512Z,8.15
2022-10-23T21:39:59.790Z,7.70
2022-10-23T21:44:05.471Z,8.80
2022-10-23T21:48:07.369Z,9.77
2022-10-23T21:52:08.816Z,9.93
2022-10-23T21:56:22.756Z,10.18
2022-10-23T22:00:24.352Z,9.55
2022-10-23T22:04:25.971Z,9.43
2022-10-23T22:08:27.647Z,9.82
2022-10-23T22:12:29.179Z,10.20
2022-10-23T22:16:31.483Z,9.68
2022-10-23T22:20:33.055Z,12.02
2022-10-23T22:24:36.516Z,11.02
2022-10-23T22:28:37.977Z,10.50
2022-10-23T22:32:39.732Z,11.25
2022-10-23T22:36:41.828Z,11.07
2022-10-23T22:40:46.644Z,11.10
2022-10-23T22:44:48.465Z,10.25
2022-10-23T22:48:49.979Z,9.50
2022-10-23T22:52:52.152Z,9.27
2022-10-23T22:56:53.629Z,9.30
2022-10-23T23:01:13.965Z,9.30
2022-10-23T23:05:15.591Z,9.50
2022-10-23T23:09:18.643Z,10.20
2022-10-23T23:13:20.276Z,10.25
2022-10-23T23:17:22.547Z,11.82
2022-10-23T23:21:24.250Z,10.43
2022-10-23T23:25:25.790Z,10.38
2022-10-23T23:29:29.327Z,10.77
2022-10-23T23:33:30.939Z,11.05
2022-10-23T23:37:32.417Z,11.75
2022-10-23T23:41:33.990Z,10.77
2022-10-23T23:45:35.493Z,11.65
2022-10-23T23:49:36.943Z,11.48
2022-10-23T23:53:38.515Z,11.25
2022-10-23T23:57:40.023Z,12.77
